Aviation Digital Data Service (ADDS)

Output produced by METARs form (2315 UTC 18 October 2019)
found at http://www.aviationweather.gov/metar/data/
 
METAR text: UBBB 182300Z 28003KT 9999 BCFG SCT002 BKN028 14/14 Q1017 R88/D TEMPO 0800 FG BKN003
Conditions at: UBBB (BAKU/BINE ARPT , AZ) observed 2300 UTC 18 October 2019
Temperature: 14.0°C (57°F)
Dewpoint: 14.0°C (57°F) [RH = 100%]
Pressure (altimeter): 30.03 inches Hg (1017.0 mb)
Winds: from the W (280 degrees) at 3 MPH (3 knots; 1.5 m/s)
Visibility: 6 or more miles (10+ km)
Ceiling: 2800 feet AGL
Clouds: scattered clouds at 200 feet AGL
broken clouds at 2800 feet AGL
Weather: BCFG  (patches of fog)

METAR text: UBBB 182230Z 32001KT 5000 BR BKN003 15/15 Q1017 R88/D TEMPO 0800 FG BKN003
Conditions at: UBBB (BAKU/BINE ARPT , AZ) observed 2230 UTC 18 October 2019
Temperature: 15.0°C (59°F)
Dewpoint: 15.0°C (59°F) [RH = 100%]
Pressure (altimeter): 30.03 inches Hg (1017.0 mb)
Winds: from the NW (320 degrees) at 1 MPH (1 knots; 0.5 m/s)
Visibility: 3 miles ( 5 km)
Ceiling: 300 feet AGL
Clouds: broken clouds at 300 feet AGL
Weather: BR  (mist)

METAR text: UBBB 182200Z 31003KT 7000 BCFG BKN004 14/14 Q1017 R88/D NOSIG
Conditions at: UBBB (BAKU/BINE ARPT , AZ) observed 2200 UTC 18 October 2019
Temperature: 14.0°C (57°F)
Dewpoint: 14.0°C (57°F) [RH = 100%]
Pressure (altimeter): 30.03 inches Hg (1017.0 mb)
Winds: from the NW (310 degrees) at 3 MPH (3 knots; 1.5 m/s)
Visibility: 4 miles ( 7 km)
Ceiling: 400 feet AGL
Clouds: broken clouds at 400 feet AGL
Weather: BCFG  (patches of fog)

METAR text: UBBB 182144Z 31003KT 0400 R34/1300 R35/P2000 FG SCT004 15/14 Q1018 R88/CLRD// NOSIG
Conditions at: UBBB (BAKU/BINE ARPT , AZ) observed 2144 UTC 18 October 2019
Temperature: 15.0°C (59°F)
Dewpoint: 14.0°C (57°F) [RH = 94%]
Pressure (altimeter): 30.06 inches Hg (1018.0 mb)
Winds: from the NW (310 degrees) at 3 MPH (3 knots; 1.5 m/s)
Visibility: 0.25 miles (0.40 km)
Ceiling: at least 12,000 feet AGL
Clouds: scattered clouds at 400 feet AGL
Weather: FG  (fog)

METAR text: UBBB 182130Z 31003KT 0400 R34/1300 FG SCT004 15/14 Q1018 R88/CLRD// NOSIG
Conditions at: UBBB (BAKU/BINE ARPT , AZ) observed 2130 UTC 18 October 2019
Temperature: 15.0°C (59°F)
Dewpoint: 14.0°C (57°F) [RH = 94%]
Pressure (altimeter): 30.06 inches Hg (1018.0 mb)
Winds: from the NW (310 degrees) at 3 MPH (3 knots; 1.5 m/s)
Visibility: 0.25 miles (0.40 km)
Ceiling: at least 12,000 feet AGL
Clouds: scattered clouds at 400 feet AGL
Weather: FG  (fog)

METAR text: UBBB 182100Z 33002KT 7000 NSC 15/14 Q1018 R88/D NOSIG
Conditions at: UBBB (BAKU/BINE ARPT , AZ) observed 2100 UTC 18 October 2019
Temperature: 15.0°C (59°F)
Dewpoint: 14.0°C (57°F) [RH = 94%]
Pressure (altimeter): 30.06 inches Hg (1018.0 mb)
Winds: from the NNW (330 degrees) at 2 MPH (2 knots; 1.0 m/s)
Visibility: 4 miles ( 7 km)
Ceiling: at least 12,000 feet AGL
Clouds: sky clear below 12,000 feet AGL
Weather: no significant weather observed at this time

METAR text: UBBB 182030Z 30003KT 8000 NSC 15/14 Q1018 R88/D NOSIG
Conditions at: UBBB (BAKU/BINE ARPT , AZ) observed 2030 UTC 18 October 2019
Temperature: 15.0°C (59°F)
Dewpoint: 14.0°C (57°F) [RH = 94%]
Pressure (altimeter): 30.06 inches Hg (1018.0 mb)
Winds: from the WNW (300 degrees) at 3 MPH (3 knots; 1.5 m/s)
Visibility: 5 miles ( 8 km)
Ceiling: at least 12,000 feet AGL
Clouds: sky clear below 12,000 feet AGL
Weather: no significant weather observed at this time

METAR text: UBBB 182000Z 30003KT 8000 NSC 16/15 Q1018 R88/D NOSIG
Conditions at: UBBB (BAKU/BINE ARPT , AZ) observed 2000 UTC 18 October 2019
Temperature: 16.0°C (61°F)
Dewpoint: 15.0°C (59°F) [RH = 94%]
Pressure (altimeter): 30.06 inches Hg (1018.0 mb)
Winds: from the WNW (300 degrees) at 3 MPH (3 knots; 1.5 m/s)
Visibility: 5 miles ( 8 km)
Ceiling: at least 12,000 feet AGL
Clouds: sky clear below 12,000 feet AGL
Weather: no significant weather observed at this time

METAR text: UBBB 181930Z 31003KT 9999 FEW014 SCT022 17/15 Q1018 R88/D NOSIG
Conditions at: UBBB (BAKU/BINE ARPT , AZ) observed 1930 UTC 18 October 2019
Temperature: 17.0°C (63°F)
Dewpoint: 15.0°C (59°F) [RH = 88%]
Pressure (altimeter): 30.06 inches Hg (1018.0 mb)
Winds: from the NW (310 degrees) at 3 MPH (3 knots; 1.5 m/s)
Visibility: 6 or more miles (10+ km)
Ceiling: at least 12,000 feet AGL
Clouds: few clouds at 1400 feet AGL
scattered clouds at 2200 feet AGL
Weather: no significant weather observed at this time

METAR text: UBBB 181900Z 00000KT 9999 FEW015 BKN026 17/15 Q1018 R88/D NOSIG
Conditions at: UBBB (BAKU/BINE ARPT , AZ) observed 1900 UTC 18 October 2019
Temperature: 17.0°C (63°F)
Dewpoint: 15.0°C (59°F) [RH = 88%]
Pressure (altimeter): 30.06 inches Hg (1018.0 mb)
Winds: calm
Visibility: 6 or more miles (10+ km)
Ceiling: 2600 feet AGL
Clouds: few clouds at 1500 feet AGL
broken clouds at 2600 feet AGL
Weather: no significant weather observed at this time

METAR text: UBBB 181830Z 00000KT 9999 FEW015 BKN027 16/15 Q1018 R88/D NOSIG
Conditions at: UBBB (BAKU/BINE ARPT , AZ) observed 1830 UTC 18 October 2019
Temperature: 16.0°C (61°F)
Dewpoint: 15.0°C (59°F) [RH = 94%]
Pressure (altimeter): 30.06 inches Hg (1018.0 mb)
Winds: calm
Visibility: 6 or more miles (10+ km)
Ceiling: 2700 feet AGL
Clouds: few clouds at 1500 feet AGL
broken clouds at 2700 feet AGL
Weather: no significant weather observed at this time

METAR text: UBBB 181800Z 29002KT 9999 FEW014 SCT022 16/14 Q1018 R88/D NOSIG
Conditions at: UBBB (BAKU/BINE ARPT , AZ) observed 1800 UTC 18 October 2019
Temperature: 16.0°C (61°F)
Dewpoint: 14.0°C (57°F) [RH = 88%]
Pressure (altimeter): 30.06 inches Hg (1018.0 mb)
Winds: from the WNW (290 degrees) at 2 MPH (2 knots; 1.0 m/s)
Visibility: 6 or more miles (10+ km)
Ceiling: at least 12,000 feet AGL
Clouds: few clouds at 1400 feet AGL
scattered clouds at 2200 feet AGL
Weather: no significant weather observed at this time

METAR text: UBBB 181730Z 03002KT 9999 SCT015 16/15 Q1018 R88/D NOSIG
Conditions at: UBBB (BAKU/BINE ARPT , AZ) observed 1730 UTC 18 October 2019
Temperature: 16.0°C (61°F)
Dewpoint: 15.0°C (59°F) [RH = 94%]
Pressure (altimeter): 30.06 inches Hg (1018.0 mb)
Winds: from the NNE (30 degrees) at 2 MPH (2 knots; 1.0 m/s)
Visibility: 6 or more miles (10+ km)
Ceiling: at least 12,000 feet AGL
Clouds: scattered clouds at 1500 feet AGL
Weather: no significant weather observed at this time

METAR text: UBBB 181700Z 00000KT 9999 SCT015 17/15 Q1018 R88/D NOSIG
Conditions at: UBBB (BAKU/BINE ARPT , AZ) observed 1700 UTC 18 October 2019
Temperature: 17.0°C (63°F)
Dewpoint: 15.0°C (59°F) [RH = 88%]
Pressure (altimeter): 30.06 inches Hg (1018.0 mb)
Winds: calm
Visibility: 6 or more miles (10+ km)
Ceiling: at least 12,000 feet AGL
Clouds: scattered clouds at 1500 feet AGL
Weather: no significant weather observed at this time

METAR text: UBBB 181630Z 31003KT CAVOK 16/15 Q1018 R88/D NOSIG
Conditions at: UBBB (BAKU/BINE ARPT , AZ) observed 1630 UTC 18 October 2019
Temperature: 16.0°C (61°F)
Dewpoint: 15.0°C (59°F) [RH = 94%]
Pressure (altimeter): 30.06 inches Hg (1018.0 mb)
Winds: from the NW (310 degrees) at 3 MPH (3 knots; 1.5 m/s)
Visibility: 6 or more miles (10+ km)
Ceiling: ceiling and visibility are OK
Clouds: unknown
Weather: no significant weather observed at this time

METAR text: UBBB 181600Z 19003KT CAVOK 18/16 Q1017 R88/D NOSIG
Conditions at: UBBB (BAKU/BINE ARPT , AZ) observed 1600 UTC 18 October 2019
Temperature: 18.0°C (64°F)
Dewpoint: 16.0°C (61°F) [RH = 88%]
Pressure (altimeter): 30.03 inches Hg (1017.0 mb)
Winds: from the S (190 degrees) at 3 MPH (3 knots; 1.5 m/s)
Visibility: 6 or more miles (10+ km)
Ceiling: ceiling and visibility are OK
Clouds: unknown
Weather: no significant weather observed at this time

METAR text: UBBB 181530Z 17005KT CAVOK 19/17 Q1017 R88/D NOSIG
Conditions at: UBBB (BAKU/BINE ARPT , AZ) observed 1530 UTC 18 October 2019
Temperature: 19.0°C (66°F)
Dewpoint: 17.0°C (63°F) [RH = 88%]
Pressure (altimeter): 30.03 inches Hg (1017.0 mb)
Winds: from the S (170 degrees) at 6 MPH (5 knots; 2.6 m/s)
Visibility: 6 or more miles (10+ km)
Ceiling: ceiling and visibility are OK
Clouds: unknown
Weather: no significant weather observed at this time

METAR text: UBBB 181500Z 15008KT CAVOK 20/17 Q1017 R88/D NOSIG
Conditions at: UBBB (BAKU/BINE ARPT , AZ) observed 1500 UTC 18 October 2019
Temperature: 20.0°C (68°F)
Dewpoint: 17.0°C (63°F) [RH = 83%]
Pressure (altimeter): 30.03 inches Hg (1017.0 mb)
Winds: from the SSE (150 degrees) at 9 MPH (8 knots; 4.1 m/s)
Visibility: 6 or more miles (10+ km)
Ceiling: ceiling and visibility are OK
Clouds: unknown
Weather: no significant weather observed at this time

METAR text: UBBB 181430Z 16008KT CAVOK 20/17 Q1017 R88/D NOSIG
Conditions at: UBBB (BAKU/BINE ARPT , AZ) observed 1430 UTC 18 October 2019
Temperature: 20.0°C (68°F)
Dewpoint: 17.0°C (63°F) [RH = 83%]
Pressure (altimeter): 30.03 inches Hg (1017.0 mb)
Winds: from the SSE (160 degrees) at 9 MPH (8 knots; 4.1 m/s)
Visibility: 6 or more miles (10+ km)
Ceiling: ceiling and visibility are OK
Clouds: unknown
Weather: no significant weather observed at this time

METAR text: UBBB 181400Z 17009KT CAVOK 20/17 Q1017 R88/D NOSIG
Conditions at: UBBB (BAKU/BINE ARPT , AZ) observed 1400 UTC 18 October 2019
Temperature: 20.0°C (68°F)
Dewpoint: 17.0°C (63°F) [RH = 83%]
Pressure (altimeter): 30.03 inches Hg (1017.0 mb)
Winds: from the S (170 degrees) at 10 MPH (9 knots; 4.6 m/s)
Visibility: 6 or more miles (10+ km)
Ceiling: ceiling and visibility are OK
Clouds: unknown
Weather: no significant weather observed at this time

METAR text: UBBB 181330Z 17011KT 9999 FEW020 21/17 Q1017 R88/D NOSIG
Conditions at: UBBB (BAKU/BINE ARPT , AZ) observed 1330 UTC 18 October 2019
Temperature: 21.0°C (70°F)
Dewpoint: 17.0°C (63°F) [RH = 78%]
Pressure (altimeter): 30.03 inches Hg (1017.0 mb)
Winds: from the S (170 degrees) at 13 MPH (11 knots; 5.7 m/s)
Visibility: 6 or more miles (10+ km)
Ceiling: at least 12,000 feet AGL
Clouds: few clouds at 2000 feet AGL
Weather: no significant weather observed at this time

METAR text: UBBB 181300Z 17013KT 9999 FEW020 21/17 Q1017 R88/D NOSIG
Conditions at: UBBB (BAKU/BINE ARPT , AZ) observed 1300 UTC 18 October 2019
Temperature: 21.0°C (70°F)
Dewpoint: 17.0°C (63°F) [RH = 78%]
Pressure (altimeter): 30.03 inches Hg (1017.0 mb)
Winds: from the S (170 degrees) at 15 MPH (13 knots; 6.7 m/s)
Visibility: 6 or more miles (10+ km)
Ceiling: at least 12,000 feet AGL
Clouds: few clouds at 2000 feet AGL
Weather: no significant weather observed at this time

METAR text: UBBB 181230Z 18012KT CAVOK 22/17 Q1017 R88/D NOSIG
Conditions at: UBBB (BAKU/BINE ARPT , AZ) observed 1230 UTC 18 October 2019
Temperature: 22.0°C (72°F)
Dewpoint: 17.0°C (63°F) [RH = 73%]
Pressure (altimeter): 30.03 inches Hg (1017.0 mb)
Winds: from the S (180 degrees) at 14 MPH (12 knots; 6.2 m/s)
Visibility: 6 or more miles (10+ km)
Ceiling: ceiling and visibility are OK
Clouds: unknown
Weather: no significant weather observed at this time

METAR text: UBBB 181200Z 17015KT 9999 FEW021 22/17 Q1017 R88/D NOSIG
Conditions at: UBBB (BAKU/BINE ARPT , AZ) observed 1200 UTC 18 October 2019
Temperature: 22.0°C (72°F)
Dewpoint: 17.0°C (63°F) [RH = 73%]
Pressure (altimeter): 30.03 inches Hg (1017.0 mb)
Winds: from the S (170 degrees) at 17 MPH (15 knots; 7.7 m/s)
Visibility: 6 or more miles (10+ km)
Ceiling: at least 12,000 feet AGL
Clouds: few clouds at 2100 feet AGL
Weather: no significant weather observed at this time

METAR text: UBBB 181130Z 17015KT 9999 FEW020 23/17 Q1017 R88/D NOSIG
Conditions at: UBBB (BAKU/BINE ARPT , AZ) observed 1130 UTC 18 October 2019
Temperature: 23.0°C (73°F)
Dewpoint: 17.0°C (63°F) [RH = 69%]
Pressure (altimeter): 30.03 inches Hg (1017.0 mb)
Winds: from the S (170 degrees) at 17 MPH (15 knots; 7.7 m/s)
Visibility: 6 or more miles (10+ km)
Ceiling: at least 12,000 feet AGL
Clouds: few clouds at 2000 feet AGL
Weather: no significant weather observed at this time

METAR text: UBBB 181100Z 17015KT 9999 FEW023 23/17 Q1017 R88/D NOSIG
Conditions at: UBBB (BAKU/BINE ARPT , AZ) observed 1100 UTC 18 October 2019
Temperature: 23.0°C (73°F)
Dewpoint: 17.0°C (63°F) [RH = 69%]
Pressure (altimeter): 30.03 inches Hg (1017.0 mb)
Winds: from the S (170 degrees) at 17 MPH (15 knots; 7.7 m/s)
Visibility: 6 or more miles (10+ km)
Ceiling: at least 12,000 feet AGL
Clouds: few clouds at 2300 feet AGL
Weather: no significant weather observed at this time

METAR text: UBBB 181030Z 18015KT 9999 FEW025 23/16 Q1017 R88/D NOSIG
Conditions at: UBBB (BAKU/BINE ARPT , AZ) observed 1030 UTC 18 October 2019
Temperature: 23.0°C (73°F)
Dewpoint: 16.0°C (61°F) [RH = 65%]
Pressure (altimeter): 30.03 inches Hg (1017.0 mb)
Winds: from the S (180 degrees) at 17 MPH (15 knots; 7.7 m/s)
Visibility: 6 or more miles (10+ km)
Ceiling: at least 12,000 feet AGL
Clouds: few clouds at 2500 feet AGL
Weather: no significant weather observed at this time

METAR text: UBBB 181000Z 17016KT 9999 SCT024 23/17 Q1017 R88/D NOSIG
Conditions at: UBBB (BAKU/BINE ARPT , AZ) observed 1000 UTC 18 October 2019
Temperature: 23.0°C (73°F)
Dewpoint: 17.0°C (63°F) [RH = 69%]
Pressure (altimeter): 30.03 inches Hg (1017.0 mb)
Winds: from the S (170 degrees) at 18 MPH (16 knots; 8.2 m/s)
Visibility: 6 or more miles (10+ km)
Ceiling: at least 12,000 feet AGL
Clouds: scattered clouds at 2400 feet AGL
Weather: no significant weather observed at this time

METAR text: UBBB 180930Z 18015KT 9999 SCT025 23/17 Q1017 R88/D NOSIG
Conditions at: UBBB (BAKU/BINE ARPT , AZ) observed 0930 UTC 18 October 2019
Temperature: 23.0°C (73°F)
Dewpoint: 17.0°C (63°F) [RH = 69%]
Pressure (altimeter): 30.03 inches Hg (1017.0 mb)
Winds: from the S (180 degrees) at 17 MPH (15 knots; 7.7 m/s)
Visibility: 6 or more miles (10+ km)
Ceiling: at least 12,000 feet AGL
Clouds: scattered clouds at 2500 feet AGL
Weather: no significant weather observed at this time

METAR text: UBBB 180900Z 18015KT 9999 BKN023 23/17 Q1018 R88/D NOSIG
Conditions at: UBBB (BAKU/BINE ARPT , AZ) observed 0900 UTC 18 October 2019
Temperature: 23.0°C (73°F)
Dewpoint: 17.0°C (63°F) [RH = 69%]
Pressure (altimeter): 30.06 inches Hg (1018.0 mb)
Winds: from the S (180 degrees) at 17 MPH (15 knots; 7.7 m/s)
Visibility: 6 or more miles (10+ km)
Ceiling: 2300 feet AGL
Clouds: broken clouds at 2300 feet AGL
Weather: no significant weather observed at this time

METAR text: UBBB 180830Z 17015KT 9999 BKN023 24/17 Q1018 R88/D NOSIG
Conditions at: UBBB (BAKU/BINE ARPT , AZ) observed 0830 UTC 18 October 2019
Temperature: 24.0°C (75°F)
Dewpoint: 17.0°C (63°F) [RH = 65%]
Pressure (altimeter): 30.06 inches Hg (1018.0 mb)
Winds: from the S (170 degrees) at 17 MPH (15 knots; 7.7 m/s)
Visibility: 6 or more miles (10+ km)
Ceiling: 2300 feet AGL
Clouds: broken clouds at 2300 feet AGL
Weather: no significant weather observed at this time

METAR text: UBBB 180800Z 19012KT 9999 BKN022 23/16 Q1019 R88/D NOSIG
Conditions at: UBBB (BAKU/BINE ARPT , AZ) observed 0800 UTC 18 October 2019
Temperature: 23.0°C (73°F)
Dewpoint: 16.0°C (61°F) [RH = 65%]
Pressure (altimeter): 30.09 inches Hg (1019.0 mb)
Winds: from the S (190 degrees) at 14 MPH (12 knots; 6.2 m/s)
Visibility: 6 or more miles (10+ km)
Ceiling: 2200 feet AGL
Clouds: broken clouds at 2200 feet AGL
Weather: no significant weather observed at this time

METAR text: UBBB 180730Z 20012KT 9999 BKN024 23/16 Q1019 R88/D NOSIG
Conditions at: UBBB (BAKU/BINE ARPT , AZ) observed 0730 UTC 18 October 2019
Temperature: 23.0°C (73°F)
Dewpoint: 16.0°C (61°F) [RH = 65%]
Pressure (altimeter): 30.09 inches Hg (1019.0 mb)
Winds: from the SSW (200 degrees) at 14 MPH (12 knots; 6.2 m/s)
Visibility: 6 or more miles (10+ km)
Ceiling: 2400 feet AGL
Clouds: broken clouds at 2400 feet AGL
Weather: no significant weather observed at this time

METAR text: UBBB 180700Z 20012KT 9999 BKN023 22/16 Q1019 R88/D NOSIG
Conditions at: UBBB (BAKU/BINE ARPT , AZ) observed 0700 UTC 18 October 2019
Temperature: 22.0°C (72°F)
Dewpoint: 16.0°C (61°F) [RH = 69%]
Pressure (altimeter): 30.09 inches Hg (1019.0 mb)
Winds: from the SSW (200 degrees) at 14 MPH (12 knots; 6.2 m/s)
Visibility: 6 or more miles (10+ km)
Ceiling: 2300 feet AGL
Clouds: broken clouds at 2300 feet AGL
Weather: no significant weather observed at this time

METAR text: UBBB 180630Z 19012KT 9999 BKN021 22/16 Q1019 R88/D NOSIG
Conditions at: UBBB (BAKU/BINE ARPT , AZ) observed 0630 UTC 18 October 2019
Temperature: 22.0°C (72°F)
Dewpoint: 16.0°C (61°F) [RH = 69%]
Pressure (altimeter): 30.09 inches Hg (1019.0 mb)
Winds: from the S (190 degrees) at 14 MPH (12 knots; 6.2 m/s)
Visibility: 6 or more miles (10+ km)
Ceiling: 2100 feet AGL
Clouds: broken clouds at 2100 feet AGL
Weather: no significant weather observed at this time

METAR text: UBBB 180600Z 19012KT 9999 BKN020 22/17 Q1020 R88/CLRD// NOSIG
Conditions at: UBBB (BAKU/BINE ARPT , AZ) observed 0600 UTC 18 October 2019
Temperature: 22.0°C (72°F)
Dewpoint: 17.0°C (63°F) [RH = 73%]
Pressure (altimeter): 30.12 inches Hg (1020.0 mb)
Winds: from the S (190 degrees) at 14 MPH (12 knots; 6.2 m/s)
Visibility: 6 or more miles (10+ km)
Ceiling: 2000 feet AGL
Clouds: broken clouds at 2000 feet AGL
Weather: no significant weather observed at this time

METAR text: UBBB 180530Z 20008KT 9999 BKN022 21/17 Q1020 R88/D NOSIG
Conditions at: UBBB (BAKU/BINE ARPT , AZ) observed 0530 UTC 18 October 2019
Temperature: 21.0°C (70°F)
Dewpoint: 17.0°C (63°F) [RH = 78%]
Pressure (altimeter): 30.12 inches Hg (1020.0 mb)
Winds: from the SSW (200 degrees) at 9 MPH (8 knots; 4.1 m/s)
Visibility: 6 or more miles (10+ km)
Ceiling: 2200 feet AGL
Clouds: broken clouds at 2200 feet AGL
Weather: no significant weather observed at this time

METAR text: UBBB 180500Z 18011KT 9999 SCT027 21/16 Q1020 R88/D NOSIG
Conditions at: UBBB (BAKU/BINE ARPT , AZ) observed 0500 UTC 18 October 2019
Temperature: 21.0°C (70°F)
Dewpoint: 16.0°C (61°F) [RH = 73%]
Pressure (altimeter): 30.12 inches Hg (1020.0 mb)
Winds: from the S (180 degrees) at 13 MPH (11 knots; 5.7 m/s)
Visibility: 6 or more miles (10+ km)
Ceiling: at least 12,000 feet AGL
Clouds: scattered clouds at 2700 feet AGL
Weather: no significant weather observed at this time

METAR text: UBBB 180430Z 17007KT 9999 SCT025 20/16 Q1020 R88/D NOSIG
Conditions at: UBBB (BAKU/BINE ARPT , AZ) observed 0430 UTC 18 October 2019
Temperature: 20.0°C (68°F)
Dewpoint: 16.0°C (61°F) [RH = 78%]
Pressure (altimeter): 30.12 inches Hg (1020.0 mb)
Winds: from the S (170 degrees) at 8 MPH (7 knots; 3.6 m/s)
Visibility: 6 or more miles (10+ km)
Ceiling: at least 12,000 feet AGL
Clouds: scattered clouds at 2500 feet AGL
Weather: no significant weather observed at this time

METAR text: UBBB 180400Z 16006KT 9999 SCT025 17/15 Q1020 R88/CLRD// NOSIG
Conditions at: UBBB (BAKU/BINE ARPT , AZ) observed 0400 UTC 18 October 2019
Temperature: 17.0°C (63°F)
Dewpoint: 15.0°C (59°F) [RH = 88%]
Pressure (altimeter): 30.12 inches Hg (1020.0 mb)
Winds: from the SSE (160 degrees) at 7 MPH (6 knots; 3.1 m/s)
Visibility: 6 or more miles (10+ km)
Ceiling: at least 12,000 feet AGL
Clouds: scattered clouds at 2500 feet AGL
Weather: no significant weather observed at this time

METAR text: UBBB 180330Z 16007KT 9999 SCT025 16/15 Q1020 R88/D NOSIG
Conditions at: UBBB (BAKU/BINE ARPT , AZ) observed 0330 UTC 18 October 2019
Temperature: 16.0°C (61°F)
Dewpoint: 15.0°C (59°F) [RH = 94%]
Pressure (altimeter): 30.12 inches Hg (1020.0 mb)
Winds: from the SSE (160 degrees) at 8 MPH (7 knots; 3.6 m/s)
Visibility: 6 or more miles (10+ km)
Ceiling: at least 12,000 feet AGL
Clouds: scattered clouds at 2500 feet AGL
Weather: no significant weather observed at this time

METAR text: UBBB 180300Z 16007KT CAVOK 15/14 Q1020 R88/D NOSIG
Conditions at: UBBB (BAKU/BINE ARPT , AZ) observed 0300 UTC 18 October 2019
Temperature: 15.0°C (59°F)
Dewpoint: 14.0°C (57°F) [RH = 94%]
Pressure (altimeter): 30.12 inches Hg (1020.0 mb)
Winds: from the SSE (160 degrees) at 8 MPH (7 knots; 3.6 m/s)
Visibility: 6 or more miles (10+ km)
Ceiling: ceiling and visibility are OK
Clouds: unknown
Weather: no significant weather observed at this time

METAR text: UBBB 180230Z 16006KT CAVOK 15/14 Q1020 R88/D NOSIG
Conditions at: UBBB (BAKU/BINE ARPT , AZ) observed 0230 UTC 18 October 2019
Temperature: 15.0°C (59°F)
Dewpoint: 14.0°C (57°F) [RH = 94%]
Pressure (altimeter): 30.12 inches Hg (1020.0 mb)
Winds: from the SSE (160 degrees) at 7 MPH (6 knots; 3.1 m/s)
Visibility: 6 or more miles (10+ km)
Ceiling: ceiling and visibility are OK
Clouds: unknown
Weather: no significant weather observed at this time

METAR text: UBBB 180200Z 15006KT CAVOK 15/14 Q1020 R88/D NOSIG
Conditions at: UBBB (BAKU/BINE ARPT , AZ) observed 0200 UTC 18 October 2019
Temperature: 15.0°C (59°F)
Dewpoint: 14.0°C (57°F) [RH = 94%]
Pressure (altimeter): 30.12 inches Hg (1020.0 mb)
Winds: from the SSE (150 degrees) at 7 MPH (6 knots; 3.1 m/s)
Visibility: 6 or more miles (10+ km)
Ceiling: ceiling and visibility are OK
Clouds: unknown
Weather: no significant weather observed at this time

METAR text: UBBB 180130Z 16006KT CAVOK 15/14 Q1020 R88/D NOSIG
Conditions at: UBBB (BAKU/BINE ARPT , AZ) observed 0130 UTC 18 October 2019
Temperature: 15.0°C (59°F)
Dewpoint: 14.0°C (57°F) [RH = 94%]
Pressure (altimeter): 30.12 inches Hg (1020.0 mb)
Winds: from the SSE (160 degrees) at 7 MPH (6 knots; 3.1 m/s)
Visibility: 6 or more miles (10+ km)
Ceiling: ceiling and visibility are OK
Clouds: unknown
Weather: no significant weather observed at this time

METAR text: UBBB 180100Z 16006KT CAVOK 15/14 Q1020 R88/D NOSIG
Conditions at: UBBB (BAKU/BINE ARPT , AZ) observed 0100 UTC 18 October 2019
Temperature: 15.0°C (59°F)
Dewpoint: 14.0°C (57°F) [RH = 94%]
Pressure (altimeter): 30.12 inches Hg (1020.0 mb)
Winds: from the SSE (160 degrees) at 7 MPH (6 knots; 3.1 m/s)
Visibility: 6 or more miles (10+ km)
Ceiling: ceiling and visibility are OK
Clouds: unknown
Weather: no significant weather observed at this time

METAR text: UBBB 180030Z 15006KT 9999 FEW020 15/14 Q1020 R88/D NOSIG
Conditions at: UBBB (BAKU/BINE ARPT , AZ) observed 0030 UTC 18 October 2019
Temperature: 15.0°C (59°F)
Dewpoint: 14.0°C (57°F) [RH = 94%]
Pressure (altimeter): 30.12 inches Hg (1020.0 mb)
Winds: from the SSE (150 degrees) at 7 MPH (6 knots; 3.1 m/s)
Visibility: 6 or more miles (10+ km)
Ceiling: at least 12,000 feet AGL
Clouds: few clouds at 2000 feet AGL
Weather: no significant weather observed at this time

METAR text: UBBB 180000Z 15006KT 9999 FEW024 16/15 Q1020 R88/D NOSIG
Conditions at: UBBB (BAKU/BINE ARPT , AZ) observed 0000 UTC 18 October 2019
Temperature: 16.0°C (61°F)
Dewpoint: 15.0°C (59°F) [RH = 94%]
Pressure (altimeter): 30.12 inches Hg (1020.0 mb)
Winds: from the SSE (150 degrees) at 7 MPH (6 knots; 3.1 m/s)
Visibility: 6 or more miles (10+ km)
Ceiling: at least 12,000 feet AGL
Clouds: few clouds at 2400 feet AGL
Weather: no significant weather observed at this time

METAR text: UBBB 172330Z 18006KT 9999 FEW019 16/14 Q1020 R88/D NOSIG
Conditions at: UBBB (BAKU/BINE ARPT , AZ) observed 2330 UTC 17 October 2019
Temperature: 16.0°C (61°F)
Dewpoint: 14.0°C (57°F) [RH = 88%]
Pressure (altimeter): 30.12 inches Hg (1020.0 mb)
Winds: from the S (180 degrees) at 7 MPH (6 knots; 3.1 m/s)
Visibility: 6 or more miles (10+ km)
Ceiling: at least 12,000 feet AGL
Clouds: few clouds at 1900 feet AGL
Weather: no significant weather observed at this time

METAR text: UBBB 172300Z 18006KT 9999 FEW024 16/14 Q1020 R88/D NOSIG
Conditions at: UBBB (BAKU/BINE ARPT , AZ) observed 2300 UTC 17 October 2019
Temperature: 16.0°C (61°F)
Dewpoint: 14.0°C (57°F) [RH = 88%]
Pressure (altimeter): 30.12 inches Hg (1020.0 mb)
Winds: from the S (180 degrees) at 7 MPH (6 knots; 3.1 m/s)
Visibility: 6 or more miles (10+ km)
Ceiling: at least 12,000 feet AGL
Clouds: few clouds at 2400 feet AGL
Weather: no significant weather observed at this time

METAR text: UBBB 172230Z 17007KT 9999 SCT024 16/14 Q1020 R88/D NOSIG
Conditions at: UBBB (BAKU/BINE ARPT , AZ) observed 2230 UTC 17 October 2019
Temperature: 16.0°C (61°F)
Dewpoint: 14.0°C (57°F) [RH = 88%]
Pressure (altimeter): 30.12 inches Hg (1020.0 mb)
Winds: from the S (170 degrees) at 8 MPH (7 knots; 3.6 m/s)
Visibility: 6 or more miles (10+ km)
Ceiling: at least 12,000 feet AGL
Clouds: scattered clouds at 2400 feet AGL
Weather: no significant weather observed at this time

METAR text: UBBB 172200Z 17006KT 9999 FEW025 17/15 Q1021 R88/D NOSIG
Conditions at: UBBB (BAKU/BINE ARPT , AZ) observed 2200 UTC 17 October 2019
Temperature: 17.0°C (63°F)
Dewpoint: 15.0°C (59°F) [RH = 88%]
Pressure (altimeter): 30.15 inches Hg (1021.0 mb)
Winds: from the S (170 degrees) at 7 MPH (6 knots; 3.1 m/s)
Visibility: 6 or more miles (10+ km)
Ceiling: at least 12,000 feet AGL
Clouds: few clouds at 2500 feet AGL
Weather: no significant weather observed at this time

METAR text: UBBB 172130Z 17006KT 9999 FEW025 17/14 Q1021 R88/D NOSIG
Conditions at: UBBB (BAKU/BINE ARPT , AZ) observed 2130 UTC 17 October 2019
Temperature: 17.0°C (63°F)
Dewpoint: 14.0°C (57°F) [RH = 82%]
Pressure (altimeter): 30.15 inches Hg (1021.0 mb)
Winds: from the S (170 degrees) at 7 MPH (6 knots; 3.1 m/s)
Visibility: 6 or more miles (10+ km)
Ceiling: at least 12,000 feet AGL
Clouds: few clouds at 2500 feet AGL
Weather: no significant weather observed at this time

METAR text: UBBB 172100Z 18006KT 9999 FEW027 18/15 Q1021 R88/D NOSIG
Conditions at: UBBB (BAKU/BINE ARPT , AZ) observed 2100 UTC 17 October 2019
Temperature: 18.0°C (64°F)
Dewpoint: 15.0°C (59°F) [RH = 83%]
Pressure (altimeter): 30.15 inches Hg (1021.0 mb)
Winds: from the S (180 degrees) at 7 MPH (6 knots; 3.1 m/s)
Visibility: 6 or more miles (10+ km)
Ceiling: at least 12,000 feet AGL
Clouds: few clouds at 2700 feet AGL
Weather: no significant weather observed at this time

METAR text: UBBB 172030Z 18007KT 9999 FEW025 18/15 Q1021 R88/D NOSIG
Conditions at: UBBB (BAKU/BINE ARPT , AZ) observed 2030 UTC 17 October 2019
Temperature: 18.0°C (64°F)
Dewpoint: 15.0°C (59°F) [RH = 83%]
Pressure (altimeter): 30.15 inches Hg (1021.0 mb)
Winds: from the S (180 degrees) at 8 MPH (7 knots; 3.6 m/s)
Visibility: 6 or more miles (10+ km)
Ceiling: at least 12,000 feet AGL
Clouds: few clouds at 2500 feet AGL
Weather: no significant weather observed at this time

METAR text: UBBB 172000Z 18006KT 9999 SCT025 19/16 Q1021 R88/D NOSIG
Conditions at: UBBB (BAKU/BINE ARPT , AZ) observed 2000 UTC 17 October 2019
Temperature: 19.0°C (66°F)
Dewpoint: 16.0°C (61°F) [RH = 83%]
Pressure (altimeter): 30.15 inches Hg (1021.0 mb)
Winds: from the S (180 degrees) at 7 MPH (6 knots; 3.1 m/s)
Visibility: 6 or more miles (10+ km)
Ceiling: at least 12,000 feet AGL
Clouds: scattered clouds at 2500 feet AGL
Weather: no significant weather observed at this time

METAR text: UBBB 171930Z 17005KT 9999 BKN026 19/16 Q1021 R88/D NOSIG
Conditions at: UBBB (BAKU/BINE ARPT , AZ) observed 1930 UTC 17 October 2019
Temperature: 19.0°C (66°F)
Dewpoint: 16.0°C (61°F) [RH = 83%]
Pressure (altimeter): 30.15 inches Hg (1021.0 mb)
Winds: from the S (170 degrees) at 6 MPH (5 knots; 2.6 m/s)
Visibility: 6 or more miles (10+ km)
Ceiling: 2600 feet AGL
Clouds: broken clouds at 2600 feet AGL
Weather: no significant weather observed at this time

METAR text: UBBB 171900Z 17006KT 9999 BKN021 18/15 Q1022 R88/D NOSIG
Conditions at: UBBB (BAKU/BINE ARPT , AZ) observed 1900 UTC 17 October 2019
Temperature: 18.0°C (64°F)
Dewpoint: 15.0°C (59°F) [RH = 83%]
Pressure (altimeter): 30.18 inches Hg (1022.0 mb)
Winds: from the S (170 degrees) at 7 MPH (6 knots; 3.1 m/s)
Visibility: 6 or more miles (10+ km)
Ceiling: 2100 feet AGL
Clouds: broken clouds at 2100 feet AGL
Weather: no significant weather observed at this time

METAR text: UBBB 171830Z 16006KT 9999 BKN021 17/15 Q1022 R88/D NOSIG
Conditions at: UBBB (BAKU/BINE ARPT , AZ) observed 1830 UTC 17 October 2019
Temperature: 17.0°C (63°F)
Dewpoint: 15.0°C (59°F) [RH = 88%]
Pressure (altimeter): 30.18 inches Hg (1022.0 mb)
Winds: from the SSE (160 degrees) at 7 MPH (6 knots; 3.1 m/s)
Visibility: 6 or more miles (10+ km)
Ceiling: 2100 feet AGL
Clouds: broken clouds at 2100 feet AGL
Weather: no significant weather observed at this time

METAR text: UBBB 171800Z 15005KT 9999 BKN020 16/14 Q1022 R88/D NOSIG
Conditions at: UBBB (BAKU/BINE ARPT , AZ) observed 1800 UTC 17 October 2019
Temperature: 16.0°C (61°F)
Dewpoint: 14.0°C (57°F) [RH = 88%]
Pressure (altimeter): 30.18 inches Hg (1022.0 mb)
Winds: from the SSE (150 degrees) at 6 MPH (5 knots; 2.6 m/s)
Visibility: 6 or more miles (10+ km)
Ceiling: 2000 feet AGL
Clouds: broken clouds at 2000 feet AGL
Weather: no significant weather observed at this time

METAR text: UBBB 171730Z 14004KT 9999 FEW021 16/13 Q1022 R88/D NOSIG
Conditions at: UBBB (BAKU/BINE ARPT , AZ) observed 1730 UTC 17 October 2019
Temperature: 16.0°C (61°F)
Dewpoint: 13.0°C (55°F) [RH = 82%]
Pressure (altimeter): 30.18 inches Hg (1022.0 mb)
Winds: from the SE (140 degrees) at 5 MPH (4 knots; 2.1 m/s)
Visibility: 6 or more miles (10+ km)
Ceiling: at least 12,000 feet AGL
Clouds: few clouds at 2100 feet AGL
Weather: no significant weather observed at this time

METAR text: UBBB 171700Z 16005KT CAVOK 18/15 Q1022 R88/D NOSIG
Conditions at: UBBB (BAKU/BINE ARPT , AZ) observed 1700 UTC 17 October 2019
Temperature: 18.0°C (64°F)
Dewpoint: 15.0°C (59°F) [RH = 83%]
Pressure (altimeter): 30.18 inches Hg (1022.0 mb)
Winds: from the SSE (160 degrees) at 6 MPH (5 knots; 2.6 m/s)
Visibility: 6 or more miles (10+ km)
Ceiling: ceiling and visibility are OK
Clouds: unknown
Weather: no significant weather observed at this time

METAR text: UBBB 171630Z 17005KT CAVOK 17/14 Q1022 R88/D NOSIG
Conditions at: UBBB (BAKU/BINE ARPT , AZ) observed 1630 UTC 17 October 2019
Temperature: 17.0°C (63°F)
Dewpoint: 14.0°C (57°F) [RH = 82%]
Pressure (altimeter): 30.18 inches Hg (1022.0 mb)
Winds: from the S (170 degrees) at 6 MPH (5 knots; 2.6 m/s)
Visibility: 6 or more miles (10+ km)
Ceiling: ceiling and visibility are OK
Clouds: unknown
Weather: no significant weather observed at this time

METAR text: UBBB 171600Z 18005KT CAVOK 17/14 Q1022 R88/CLRD// NOSIG
Conditions at: UBBB (BAKU/BINE ARPT , AZ) observed 1600 UTC 17 October 2019
Temperature: 17.0°C (63°F)
Dewpoint: 14.0°C (57°F) [RH = 82%]
Pressure (altimeter): 30.18 inches Hg (1022.0 mb)
Winds: from the S (180 degrees) at 6 MPH (5 knots; 2.6 m/s)
Visibility: 6 or more miles (10+ km)
Ceiling: ceiling and visibility are OK
Clouds: unknown
Weather: no significant weather observed at this time

METAR text: UBBB 171530Z 17006KT CAVOK 17/14 Q1022 R88/D NOSIG
Conditions at: UBBB (BAKU/BINE ARPT , AZ) observed 1530 UTC 17 October 2019
Temperature: 17.0°C (63°F)
Dewpoint: 14.0°C (57°F) [RH = 82%]
Pressure (altimeter): 30.18 inches Hg (1022.0 mb)
Winds: from the S (170 degrees) at 7 MPH (6 knots; 3.1 m/s)
Visibility: 6 or more miles (10+ km)
Ceiling: ceiling and visibility are OK
Clouds: unknown
Weather: no significant weather observed at this time

METAR text: UBBB 171500Z 15005KT CAVOK 19/15 Q1022 R88/D NOSIG
Conditions at: UBBB (BAKU/BINE ARPT , AZ) observed 1500 UTC 17 October 2019
Temperature: 19.0°C (66°F)
Dewpoint: 15.0°C (59°F) [RH = 78%]
Pressure (altimeter): 30.18 inches Hg (1022.0 mb)
Winds: from the SSE (150 degrees) at 6 MPH (5 knots; 2.6 m/s)
Visibility: 6 or more miles (10+ km)
Ceiling: ceiling and visibility are OK
Clouds: unknown
Weather: no significant weather observed at this time

METAR text: UBBB 171430Z 15007KT CAVOK 19/15 Q1022 R88/D NOSIG
Conditions at: UBBB (BAKU/BINE ARPT , AZ) observed 1430 UTC 17 October 2019
Temperature: 19.0°C (66°F)
Dewpoint: 15.0°C (59°F) [RH = 78%]
Pressure (altimeter): 30.18 inches Hg (1022.0 mb)
Winds: from the SSE (150 degrees) at 8 MPH (7 knots; 3.6 m/s)
Visibility: 6 or more miles (10+ km)
Ceiling: ceiling and visibility are OK
Clouds: unknown
Weather: no significant weather observed at this time

METAR text: UBBB 171400Z 12004KT CAVOK 20/15 Q1022 R88/D NOSIG
Conditions at: UBBB (BAKU/BINE ARPT , AZ) observed 1400 UTC 17 October 2019
Temperature: 20.0°C (68°F)
Dewpoint: 15.0°C (59°F) [RH = 73%]
Pressure (altimeter): 30.18 inches Hg (1022.0 mb)
Winds: from the ESE (120 degrees) at 5 MPH (4 knots; 2.1 m/s)
Visibility: 6 or more miles (10+ km)
Ceiling: ceiling and visibility are OK
Clouds: unknown
Weather: no significant weather observed at this time

METAR text: UBBB 171330Z 12005KT 9999 SCT025 20/14 Q1022 R88/D NOSIG
Conditions at: UBBB (BAKU/BINE ARPT , AZ) observed 1330 UTC 17 October 2019
Temperature: 20.0°C (68°F)
Dewpoint: 14.0°C (57°F) [RH = 68%]
Pressure (altimeter): 30.18 inches Hg (1022.0 mb)
Winds: from the ESE (120 degrees) at 6 MPH (5 knots; 2.6 m/s)
Visibility: 6 or more miles (10+ km)
Ceiling: at least 12,000 feet AGL
Clouds: scattered clouds at 2500 feet AGL
Weather: no significant weather observed at this time

METAR text: UBBB 171300Z 07008KT 9999 SCT024 21/15 Q1022 R88/D NOSIG
Conditions at: UBBB (BAKU/BINE ARPT , AZ) observed 1300 UTC 17 October 2019
Temperature: 21.0°C (70°F)
Dewpoint: 15.0°C (59°F) [RH = 69%]
Pressure (altimeter): 30.18 inches Hg (1022.0 mb)
Winds: from the ENE (70 degrees) at 9 MPH (8 knots; 4.1 m/s)
Visibility: 6 or more miles (10+ km)
Ceiling: at least 12,000 feet AGL
Clouds: scattered clouds at 2400 feet AGL
Weather: no significant weather observed at this time

METAR text: UBBB 171230Z 08009KT 9999 SCT025 21/15 Q1022 R88/D NOSIG
Conditions at: UBBB (BAKU/BINE ARPT , AZ) observed 1230 UTC 17 October 2019
Temperature: 21.0°C (70°F)
Dewpoint: 15.0°C (59°F) [RH = 69%]
Pressure (altimeter): 30.18 inches Hg (1022.0 mb)
Winds: from the E (80 degrees) at 10 MPH (9 knots; 4.6 m/s)
Visibility: 6 or more miles (10+ km)
Ceiling: at least 12,000 feet AGL
Clouds: scattered clouds at 2500 feet AGL
Weather: no significant weather observed at this time

METAR text: UBBB 171200Z 06010KT 9999 SCT026 22/15 Q1022 R88/D NOSIG
Conditions at: UBBB (BAKU/BINE ARPT , AZ) observed 1200 UTC 17 October 2019
Temperature: 22.0°C (72°F)
Dewpoint: 15.0°C (59°F) [RH = 65%]
Pressure (altimeter): 30.18 inches Hg (1022.0 mb)
Winds: from the ENE (60 degrees) at 12 MPH (10 knots; 5.1 m/s)
Visibility: 6 or more miles (10+ km)
Ceiling: at least 12,000 feet AGL
Clouds: scattered clouds at 2600 feet AGL
Weather: no significant weather observed at this time

METAR text: UBBB 171130Z 06009KT 9999 SCT030 23/14 Q1022 R88/D NOSIG
Conditions at: UBBB (BAKU/BINE ARPT , AZ) observed 1130 UTC 17 October 2019
Temperature: 23.0°C (73°F)
Dewpoint: 14.0°C (57°F) [RH = 57%]
Pressure (altimeter): 30.18 inches Hg (1022.0 mb)
Winds: from the ENE (60 degrees) at 10 MPH (9 knots; 4.6 m/s)
Visibility: 6 or more miles (10+ km)
Ceiling: at least 12,000 feet AGL
Clouds: scattered clouds at 3000 feet AGL
Weather: no significant weather observed at this time

Forecast for: UBBB (BAKU/BINE ARPT , AZ)
Text: TAF UBBB 182307Z 1900/1924 32006KT 1200 BR SCT005 SCT020 TX23/1909Z TN14/1901Z
Forecast period: 0000 to 0400 UTC 19 October 2019
Forecast type: FROM: standard forecast or significant change
Winds: from the NW (320 degrees) at 7 MPH (6 knots; 3.1 m/s)
Visibility: 0.75 miles (1.21 km)
Ceiling: at least 12,000 feet AGL
Clouds: scattered clouds at 500 feet AGL
scattered clouds at 2000 feet AGL
Weather: BR  (mist)
Text: TEMPO 1900/1904 VRB04KT 0400 FG BKN003
Forecast period: 0000 to 0400 UTC 19 October 2019
Forecast type: TEMPORARY: The following changes expected for less than half the time period
Winds: variable direction winds at 5 MPH (4 knots; 2.1 m/s)
Visibility: 0.25 miles (0.40 km)
Ceiling: 300 feet AGL
Clouds: broken clouds at 300 feet AGL
Weather: FG  (fog)
Text: BECMG 1904/1906 35010KT 9999 NSW SCT020
Forecast period: 0400 UTC 19 October 2019 to 0000 UTC 20 October 2019
Forecast type: BECOMING: Conditions expected to become as follows by 0600 UTC 19 October 2019
Winds: from the N (350 degrees) at 12 MPH (10 knots; 5.1 m/s)
Visibility: 6 or more miles 10+ km)
Ceiling: at least 12,000 feet AGL
Clouds: scattered clouds at 2000 feet AGL
Weather: NSW  (no significant weather)